createdAt,value
2022-09-23T00:01:37.554Z,6.87
2022-09-23T00:04:41.477Z,6.12
2022-09-23T00:07:44.553Z,6.50
2022-09-23T00:10:47.637Z,6.57
2022-09-23T00:13:52.766Z,6.03
2022-09-23T00:16:55.608Z,5.95
2022-09-23T00:19:58.244Z,6.05
2022-09-23T00:23:01.419Z,5.70
2022-09-23T00:26:06.201Z,6.18
2022-09-23T00:29:09.035Z,6.28
2022-09-23T00:32:11.543Z,6.20
2022-09-23T00:35:14.296Z,6.12
2022-09-23T00:38:17.220Z,5.97
2022-09-23T00:41:21.334Z,6.25
2022-09-23T00:44:48.652Z,6.47
2022-09-23T00:47:54.967Z,6.35
2022-09-23T00:50:57.522Z,6.60
2022-09-23T00:54:02.166Z,6.37
2022-09-23T00:57:05.721Z,6.68
2022-09-23T01:00:09.197Z,7.15
2022-09-23T01:03:12.030Z,7.05
2022-09-23T01:06:14.934Z,6.65
2022-09-23T01:09:18.253Z,6.22
2022-09-23T01:12:21.452Z,6.37
2022-09-23T01:15:39.162Z,6.45
2022-09-23T01:18:50.680Z,6.85
2022-09-23T01:21:57.011Z,7.32
2022-09-23T01:25:11.604Z,6.80
2022-09-23T01:28:40.876Z,6.85
2022-09-23T01:31:57.717Z,6.60
2022-09-23T01:35:15.207Z,6.93
2022-09-23T01:38:40.327Z,7.22
2022-09-23T01:42:09.589Z,7.07
2022-09-23T01:45:19.490Z,6.62
2022-09-23T01:48:43.168Z,6.70
2022-09-23T01:51:50.998Z,6.62
2022-09-23T01:55:02.256Z,7.40
2022-09-23T01:58:14.674Z,6.78
2022-09-23T02:01:23.797Z,6.55
2022-09-23T02:04:47.195Z,6.78
2022-09-23T02:07:57.783Z,6.82
2022-09-23T02:11:06.541Z,6.95
2022-09-23T02:14:35.908Z,7.47
2022-09-23T02:17:49.634Z,6.90
2022-09-23T02:20:59.263Z,6.70
2022-09-23T02:24:19.524Z,7.12
2022-09-23T02:27:31.280Z,7.05
2022-09-23T02:30:45.237Z,6.72
2022-09-23T02:34:09.237Z,7.35
2022-09-23T02:37:27.317Z,6.93
2022-09-23T02:40:40.338Z,6.75
2022-09-23T02:43:51.943Z,7.53
2022-09-23T02:46:55.097Z,6.95
2022-09-23T02:49:57.893Z,7.20
2022-09-23T02:53:01.139Z,7.25
2022-09-23T02:56:15.536Z,7.60
2022-09-23T02:59:20.300Z,7.40
2022-09-23T03:02:49.272Z,6.78
2022-09-23T03:05:58.941Z,7.05
2022-09-23T03:09:27.860Z,7.40
2022-09-23T03:13:00.480Z,7.07
2022-09-23T03:16:22.500Z,7.15
2022-09-23T03:19:37.883Z,7.97
2022-09-23T03:22:46.909Z,6.85
2022-09-23T03:25:54.051Z,6.85
2022-09-23T03:28:58.731Z,7.57
2022-09-23T03:32:01.469Z,6.65
2022-09-23T03:35:05.886Z,7.57
2022-09-23T03:38:17.296Z,7.60
2022-09-23T03:41:28.998Z,7.00
2022-09-23T03:44:39.692Z,7.30
2022-09-23T03:47:43.847Z,7.05
2022-09-23T03:50:46.297Z,6.80
2022-09-23T03:53:49.396Z,7.07
2022-09-23T03:56:52.000Z,6.53
2022-09-23T03:59:55.067Z,6.97
2022-09-23T04:02:57.527Z,7.00
2022-09-23T04:06:00.903Z,6.80
2022-09-23T04:09:03.551Z,7.07
2022-09-23T04:12:06.923Z,7.05
2022-09-23T04:15:09.922Z,7.20
2022-09-23T04:18:12.603Z,7.70
2022-09-23T04:21:15.488Z,7.47
2022-09-23T04:24:18.758Z,7.72
2022-09-23T04:27:21.276Z,7.68
2022-09-23T04:30:24.000Z,7.10
2022-09-23T04:33:26.682Z,7.62
2022-09-23T04:36:30.376Z,7.40
2022-09-23T04:39:32.794Z,7.18
2022-09-23T04:42:35.463Z,7.78
2022-09-23T04:45:37.819Z,7.50
2022-09-23T04:48:44.069Z,7.80
2022-09-23T04:51:46.687Z,7.80
2022-09-23T04:54:49.409Z,7.70
2022-09-23T04:57:53.752Z,7.10
2022-09-23T05:01:01.729Z,7.70
2022-09-23T05:04:11.023Z,7.78
2022-09-23T05:07:14.008Z,7.50
2022-09-23T05:10:17.780Z,7.55
2022-09-23T05:13:20.453Z,7.78
2022-09-23T05:16:24.349Z,7.68
2022-09-23T05:19:27.198Z,6.82
2022-09-23T05:22:30.682Z,7.53
2022-09-23T05:25:38.097Z,7.40
2022-09-23T05:28:41.031Z,7.15
2022-09-23T05:31:43.908Z,7.50
2022-09-23T05:34:46.674Z,6.62
2022-09-23T05:37:49.426Z,6.78
2022-09-23T05:41:00.732Z,7.00
2022-09-23T05:44:03.741Z,7.20
2022-09-23T05:47:06.602Z,7.53
2022-09-23T05:50:10.004Z,7.65
2022-09-23T05:53:12.462Z,7.30
2022-09-23T05:56:18.090Z,7.37
2022-09-23T05:59:20.569Z,7.53
2022-09-23T06:02:23.633Z,6.53
2022-09-23T06:05:26.515Z,6.82
2022-09-23T06:08:29.119Z,6.40
2022-09-23T06:11:34.190Z,6.60
2022-09-23T06:14:37.041Z,6.43
2022-09-23T06:17:39.768Z,7.10
2022-09-23T06:20:42.268Z,6.53
2022-09-23T06:23:45.717Z,7.32
2022-09-23T06:26:48.358Z,6.80
2022-09-23T06:29:52.535Z,6.68
2022-09-23T06:32:57.309Z,7.37
2022-09-23T06:36:01.943Z,6.78
2022-09-23T06:39:04.860Z,6.70
2022-09-23T06:42:07.920Z,6.62
2022-09-23T06:45:13.035Z,6.20
2022-09-23T06:48:15.735Z,6.53
2022-09-23T06:51:21.733Z,5.97
2022-09-23T06:54:25.423Z,5.95
2022-09-23T06:57:32.863Z,5.80
2022-09-23T07:00:36.288Z,6.43
2022-09-23T07:03:39.077Z,6.37
2022-09-23T07:06:41.922Z,6.18
2022-09-23T07:09:45.427Z,5.72
2022-09-23T07:12:48.198Z,5.70
2022-09-23T07:16:02.151Z,6.10
2022-09-23T07:19:05.363Z,5.03
2022-09-23T07:22:07.945Z,5.28
2022-09-23T07:25:12.198Z,4.32
2022-09-23T07:28:14.659Z,3.85
2022-09-23T07:31:29.687Z,3.85
2022-09-23T07:34:37.307Z,3.85
2022-09-23T07:37:40.099Z,3.90
2022-09-23T07:40:42.696Z,3.60
2022-09-23T07:43:46.964Z,4.07
2022-09-23T07:46:50.900Z,3.60
2022-09-23T07:49:54.144Z,3.45
2022-09-23T07:52:56.766Z,3.28
2022-09-23T07:55:59.709Z,2.65
2022-09-23T07:59:05.531Z,3.10
2022-09-23T08:02:09.750Z,3.40
2022-09-23T08:05:12.549Z,2.72
2022-09-23T08:08:16.019Z,2.97
2022-09-23T08:11:19.172Z,3.28
2022-09-23T08:14:24.961Z,2.50
2022-09-23T08:17:27.813Z,2.28
2022-09-23T08:20:47.351Z,2.47
2022-09-23T08:23:51.736Z,2.85
2022-09-23T08:26:55.836Z,2.50
2022-09-23T08:29:58.593Z,2.40
2022-09-23T08:33:01.070Z,3.58
2022-09-23T08:36:04.079Z,2.60
2022-09-23T08:39:06.864Z,2.47
2022-09-23T08:42:27.616Z,2.72
2022-09-23T08:45:30.743Z,3.28
2022-09-23T08:48:52.529Z,2.67
2022-09-23T08:51:56.086Z,2.78
2022-09-23T08:55:01.170Z,2.92
2022-09-23T08:58:35.212Z,3.08
2022-09-23T09:01:44.431Z,3.22
2022-09-23T09:04:58.079Z,3.30
2022-09-23T09:08:03.752Z,3.30
2022-09-23T09:11:07.078Z,3.85
2022-09-23T09:14:30.088Z,3.60
2022-09-23T09:17:38.869Z,3.78
2022-09-23T09:21:08.540Z,4.05
2022-09-23T09:24:33.671Z,3.83
2022-09-23T09:27:40.733Z,4.30
2022-09-23T09:30:48.385Z,4.37
2022-09-23T09:33:59.347Z,3.97
2022-09-23T09:37:18.812Z,3.97
2022-09-23T09:40:21.763Z,3.65
2022-09-23T09:43:24.618Z,3.80
2022-09-23T09:46:50.511Z,3.42
2022-09-23T09:50:05.678Z,3.67
2022-09-23T09:53:28.214Z,3.60
2022-09-23T09:56:36.262Z,3.65
2022-09-23T09:59:44.154Z,3.40
2022-09-23T10:03:14.486Z,3.15
2022-09-23T10:06:24.426Z,4.07
2022-09-23T10:09:34.194Z,3.95
2022-09-23T10:18:55.771Z,4.15
2022-09-23T10:22:09.165Z,3.65
2022-09-23T10:25:26.746Z,3.70
2022-09-23T10:28:44.085Z,3.70
2022-09-23T10:31:46.886Z,3.72
2022-09-23T10:34:53.223Z,3.78
2022-09-23T10:38:02.296Z,3.70
2022-09-23T10:41:30.439Z,3.87
2022-09-23T10:45:26.496Z,4.05
2022-09-23T10:49:10.036Z,4.10
2022-09-23T10:52:22.384Z,3.90
2022-09-23T10:55:40.651Z,3.58
2022-09-23T10:59:12.606Z,3.20
2022-09-23T11:02:23.795Z,3.08
2022-09-23T11:05:36.443Z,2.90
2022-09-23T11:09:03.047Z,3.03
2022-09-23T11:12:14.865Z,2.60
2022-09-23T11:15:49.408Z,3.22
2022-09-23T11:19:26.755Z,3.10
2022-09-23T11:22:53.854Z,3.28
2022-09-23T11:26:19.026Z,3.28
2022-09-23T11:29:22.302Z,3.20
2022-09-23T11:32:31.560Z,2.72
2022-09-23T11:35:41.650Z,2.75
2022-09-23T11:38:48.884Z,2.87
2022-09-23T11:41:59.835Z,2.72
2022-09-23T11:45:13.019Z,2.80
2022-09-23T11:48:23.957Z,2.60
2022-09-23T11:51:32.026Z,2.05
2022-09-23T11:54:40.131Z,1.48
2022-09-23T11:57:49.516Z,1.58
2022-09-23T12:01:01.208Z,1.80
2022-09-23T12:04:19.580Z,1.50
2022-09-23T12:07:29.089Z,1.95
2022-09-23T12:11:00.572Z,2.30
2022-09-23T12:14:29.443Z,2.00
2022-09-23T12:17:37.990Z,1.65
2022-09-23T12:20:43.456Z,2.27
2022-09-23T12:24:07.672Z,2.50
2022-09-23T12:27:24.515Z,2.33
2022-09-23T12:30:32.201Z,2.40
2022-09-23T12:33:40.065Z,2.25
2022-09-23T12:36:49.492Z,2.42
2022-09-23T12:39:52.766Z,2.20
2022-09-23T12:42:56.247Z,2.10
2022-09-23T12:46:20.214Z,2.15
2022-09-23T12:49:25.261Z,2.10
2022-09-23T12:52:33.603Z,1.90
2022-09-23T12:55:36.353Z,1.52
2022-09-23T12:58:42.677Z,1.65
2022-09-23T13:01:45.804Z,1.95
2022-09-23T13:05:27.644Z,1.77
2022-09-23T13:08:34.077Z,1.48
2022-09-23T13:11:40.382Z,1.75
2022-09-23T13:14:46.545Z,1.40
2022-09-23T13:17:49.056Z,1.65
2022-09-23T13:20:54.932Z,2.03
2022-09-23T13:24:18.677Z,1.73
2022-09-23T13:27:31.004Z,2.15
2022-09-23T13:30:34.635Z,1.85
2022-09-23T13:33:46.809Z,2.10
2022-09-23T13:36:49.445Z,2.00
2022-09-23T13:39:52.104Z,2.30
2022-09-23T13:43:01.244Z,2.30
2022-09-23T13:46:10.318Z,2.75
2022-09-23T13:49:24.680Z,2.40
2022-09-23T13:52:31.802Z,2.70
2022-09-23T13:55:39.250Z,2.10
2022-09-23T13:58:45.088Z,1.70
2022-09-23T14:02:09.743Z,2.40
2022-09-23T14:05:24.230Z,2.20
2022-09-23T14:08:28.314Z,2.80
2022-09-23T14:11:35.162Z,2.30
2022-09-23T14:14:40.861Z,2.70
2022-09-23T14:17:49.530Z,2.08
2022-09-23T14:20:51.930Z,2.50
2022-09-23T14:23:55.574Z,2.55
2022-09-23T14:27:12.063Z,2.35
2022-09-23T14:30:18.560Z,2.47
2022-09-23T14:33:39.258Z,2.12
2022-09-23T14:37:01.564Z,2.10
2022-09-23T14:40:10.953Z,2.40
2022-09-23T14:43:23.273Z,2.53
2022-09-23T14:46:31.385Z,2.47
2022-09-23T14:49:34.187Z,2.35
2022-09-23T14:52:36.661Z,2.40
2022-09-23T14:55:41.494Z,2.45
2022-09-23T14:58:51.905Z,2.40
2022-09-23T15:01:54.984Z,2.28
2022-09-23T15:05:18.260Z,2.50
2022-09-23T15:08:23.610Z,2.42
2022-09-23T15:11:26.343Z,2.20
2022-09-23T15:14:39.751Z,2.55
2022-09-23T15:17:44.196Z,1.85
2022-09-23T15:20:52.325Z,1.98
2022-09-23T15:23:57.554Z,2.25
2022-09-23T15:27:00.424Z,2.03
2022-09-23T15:30:17.385Z,3.33
2022-09-23T15:33:25.048Z,2.22
2022-09-23T15:36:28.769Z,1.98
2022-09-23T15:39:36.236Z,2.40
2022-09-23T15:42:39.725Z,1.90
2022-09-23T15:46:04.690Z,1.83
2022-09-23T15:49:16.107Z,2.40
2022-09-23T15:52:22.718Z,2.10
2022-09-23T15:55:25.352Z,2.10
2022-09-23T15:58:28.171Z,2.28
2022-09-23T16:01:33.225Z,2.20
2022-09-23T16:04:36.244Z,2.40
2022-09-23T16:07:38.700Z,2.00
2022-09-23T16:10:42.910Z,2.60
2022-09-23T16:13:45.660Z,2.10
2022-09-23T16:16:48.557Z,2.00
2022-09-23T16:19:50.974Z,2.03
2022-09-23T16:22:57.822Z,2.17
2022-09-23T16:26:13.888Z,2.40
2022-09-23T16:29:16.874Z,2.28
2022-09-23T16:32:22.248Z,2.33
2022-09-23T16:35:27.926Z,2.65
2022-09-23T16:38:31.967Z,2.75
2022-09-23T16:41:35.018Z,2.40
2022-09-23T16:44:41.486Z,2.80
2022-09-23T16:47:46.452Z,2.30
2022-09-23T16:50:48.922Z,2.50
2022-09-23T16:53:51.973Z,2.60
2022-09-23T16:56:55.152Z,3.12
2022-09-23T17:00:16.704Z,3.10
2022-09-23T17:03:37.918Z,2.78
2022-09-23T17:06:44.555Z,2.90
2022-09-23T17:09:46.965Z,2.95
2022-09-23T17:12:50.587Z,3.08
2022-09-23T17:15:54.011Z,3.00
2022-09-23T17:18:57.371Z,3.12
2022-09-23T17:22:00.001Z,3.33
2022-09-23T17:25:03.814Z,3.20
2022-09-23T17:28:06.342Z,3.42
2022-09-23T17:31:09.691Z,3.35
2022-09-23T17:34:12.232Z,3.58
2022-09-23T17:37:15.126Z,3.50
2022-09-23T17:40:18.015Z,3.60
2022-09-23T17:43:25.060Z,3.55
2022-09-23T17:46:30.058Z,4.60
2022-09-23T17:49:35.215Z,3.80
2022-09-23T17:52:37.809Z,3.83
2022-09-23T17:55:40.940Z,3.87
2022-09-23T17:58:44.683Z,4.43
2022-09-23T18:01:47.452Z,4.85
2022-09-23T18:04:50.227Z,4.62
2022-09-23T18:07:52.613Z,4.70
2022-09-23T18:10:55.425Z,4.95
2022-09-23T18:14:04.111Z,5.47
2022-09-23T18:17:06.824Z,5.37
2022-09-23T18:20:09.913Z,5.10
2022-09-23T18:23:12.672Z,5.47
2022-09-23T18:26:16.750Z,5.50
2022-09-23T18:29:19.727Z,5.50
2022-09-23T18:32:22.197Z,5.70
2022-09-23T18:35:25.477Z,5.62
2022-09-23T18:38:28.156Z,6.15
2022-09-23T18:41:31.461Z,6.18
2022-09-23T18:44:33.901Z,5.80
2022-09-23T18:47:55.331Z,6.25
2022-09-23T18:50:57.839Z,6.60
2022-09-23T18:54:02.849Z,6.00
2022-09-23T18:57:05.323Z,6.45
2022-09-23T19:00:09.802Z,6.20
2022-09-23T19:03:12.232Z,6.03
2022-09-23T19:06:21.149Z,6.10
2022-09-23T19:09:24.168Z,6.32
2022-09-23T19:12:27.171Z,6.20
2022-09-23T19:15:29.676Z,5.55
2022-09-23T19:18:33.772Z,6.00
2022-09-23T19:21:37.021Z,6.05
2022-09-23T19:24:39.849Z,6.32
2022-09-23T19:27:42.395Z,6.18
2022-09-23T19:30:45.309Z,6.25
2022-09-23T19:33:58.425Z,6.82
2022-09-23T19:37:04.523Z,6.40
2022-09-23T19:40:07.938Z,7.25
2022-09-23T19:43:10.785Z,8.07
2022-09-23T19:46:13.495Z,8.18
2022-09-23T19:49:19.823Z,8.65
2022-09-23T19:52:22.797Z,8.68
2022-09-23T19:55:25.585Z,8.75
2022-09-23T19:58:28.038Z,9.35
2022-09-23T20:01:31.989Z,9.05
2022-09-23T20:04:36.111Z,8.60
2022-09-23T20:07:41.076Z,8.13
2022-09-23T20:10:44.360Z,8.88
2022-09-23T20:13:48.144Z,8.48
2022-09-23T20:16:51.939Z,9.00
2022-09-23T20:19:54.334Z,8.30
2022-09-23T20:22:56.943Z,8.63
2022-09-23T20:26:19.734Z,8.75
2022-09-23T20:29:22.499Z,8.23
2022-09-23T20:32:25.198Z,8.50
2022-09-23T20:35:33.124Z,8.23
2022-09-23T20:38:36.623Z,8.73
2022-09-23T20:41:39.708Z,8.57
2022-09-23T20:44:43.417Z,9.15
2022-09-23T20:47:46.225Z,9.73
2022-09-23T20:50:51.220Z,9.38
2022-09-23T20:53:54.046Z,9.13
2022-09-23T20:56:57.119Z,9.00
2022-09-23T20:59:59.907Z,9.73
2022-09-23T21:03:02.658Z,10.07
2022-09-23T21:06:06.816Z,10.63
2022-09-23T21:09:09.254Z,9.95
2022-09-23T21:12:11.930Z,10.45
2022-09-23T21:15:14.359Z,10.73
2022-09-23T21:18:23.228Z,11.00
2022-09-23T21:21:26.021Z,10.82
2022-09-23T21:25:12.137Z,11.15
2022-09-23T21:27:54.111Z,11.27
2022-09-23T21:31:05.746Z,11.90
2022-09-23T21:34:11.190Z,10.85
2022-09-23T21:37:14.073Z,10.90
2022-09-23T21:40:35.071Z,10.77
2022-09-23T21:43:40.429Z,11.40
2022-09-23T21:46:43.329Z,10.85
2022-09-23T21:49:50.610Z,10.60
2022-09-23T21:52:53.488Z,10.45
2022-09-23T21:56:07.002Z,11.18
2022-09-23T21:59:10.052Z,10.90
2022-09-23T22:02:12.719Z,10.60
2022-09-23T22:05:15.457Z,10.43
2022-09-23T22:08:17.822Z,9.88
2022-09-23T22:11:41.058Z,11.15
2022-09-23T22:14:43.607Z,10.70
2022-09-23T22:17:48.078Z,10.18
2022-09-23T22:20:50.742Z,10.20
2022-09-23T22:23:54.887Z,10.52
2022-09-23T22:26:57.330Z,10.35
2022-09-23T22:30:18.828Z,10.68
2022-09-23T22:33:22.023Z,9.77
2022-09-23T22:36:24.886Z,10.13
2022-09-23T22:39:29.738Z,10.13
2022-09-23T22:42:37.849Z,10.25
2022-09-23T22:45:49.548Z,9.38
2022-09-23T22:48:53.244Z,9.68
2022-09-23T22:51:55.819Z,10.55
2022-09-23T22:54:58.593Z,10.40
2022-09-23T22:58:15.359Z,10.30
2022-09-23T23:01:23.791Z,10.00
2022-09-23T23:04:27.006Z,9.80
2022-09-23T23:07:29.754Z,9.88
2022-09-23T23:10:32.565Z,9.52
2022-09-23T23:13:35.667Z,10.23
2022-09-23T23:16:38.990Z,9.93
2022-09-23T23:19:41.753Z,10.18
2022-09-23T23:22:44.247Z,9.95
2022-09-23T23:25:46.969Z,10.23
2022-09-23T23:28:51.583Z,9.13
2022-09-23T23:31:54.430Z,10.13
2022-09-23T23:34:56.965Z,10.13
2022-09-23T23:37:59.703Z,10.02
2022-09-23T23:41:03.223Z,9.88
2022-09-23T23:44:07.049Z,9.90
2022-09-23T23:47:09.518Z,8.93
2022-09-23T23:50:12.270Z,9.68
2022-09-23T23:53:14.722Z,9.43
2022-09-23T23:56:20.548Z,9.00
2022-09-23T23:59:23.066Z,9.55
